Springfield, Michigan
Current Conditions -  °F | °C
As of 2:53 AM on Thursday 18 Dec 2014 (Local Time) from KBTL Reporting Station
Overcast Overcast  
Wind Chill: 20°   Ceiling: 1800
Heat Index: 29°   Visibility: 10mi
Dew Point: 21°   Wind: 9mph
Humidity: 72%   Direction: 280°W
Pressure: 30.21"   Gusts: NA
Location:  42.2966°N, 85.2371°W
Report Text: KBTL 180753Z 28008KT 10SM OVC018 M02/M06 A3021 RMK AO2 SLP241 T10171061
Loading
Personal Weather Stations






























Interactive Weather Map New forecast layout! Learn more

10-Day Weather Forecast

Advertisements
Track Severe Weather on mobile